Aviation Digital Data Service (ADDS)

Output produced by METARs form (1645 UTC 20 January 2019)
found at http://www.aviationweather.gov/metar/data/
 
KBWI 201554Z 29022G32KT 10SM BKN025 BKN032 OVC085 05/02 A2945 RMK AO2 PK WND 28032/1552 SLP972 T00500017
KBWI 201439Z 2015/2118 27015G28KT P6SM BKN020 
     FM201800 32021G38KT P6SM BKN030 
     FM210000 32019G32KT P6SM SCT035 
     FM211500 32022G36KT P6SM SCT035
       
KMTN 201545Z 28025G36KT 10SM SCT026 BKN110 07/05 A2944
KMTN 201439Z 2015/2112 27013G22KT P6SM BKN015 
     FM201800 32021G38KT P6SM BKN030 
     FM210000 32019G32KT P6SM SKC
       
KCGE 201620Z AUTO 31012G26KT 10SM BKN025 OVC047 07/03 A2944 RMK A01
KADW 201629Z AUTO 31023G34KT 10SM BKN030 03/M03 A2948 RMK AO2 RAB08E19 SLP992 $
TAF AMD KADW 201420Z 2014/2115 30015G25KT 9999 OVC030 QNH2929INS 
     TEMPO 2014/2016 30025G35KT 520003 
     BECMG 2016/2017 32025G35KT 9999 SCT025 520003 QNH2946INS 
     BECMG 2023/2024 32030G40KT 9999 SCT030 520003 QNH2971INS TX05/2014Z
TNM09/2109Z
       
KCBE 201620Z AUTO 33017G32KT 10SM -SN SCT025 BKN032 M04/M11 A2977 RMK AO2 T10441109
KFME 201642Z AUTO 29013G26KT 10SM BKN030 OVC095 03/M01 A2952 RMK AO1
KFDK 201547Z 31016G21KT 10SM OVC029 02/M02 A2957
KGAI 201556Z AUTO 29026G34KT 10SM OVC024 01/M02 A2950 RMK AO2 PK WND 30034/1549 SLP020 T00111022 FZRANO
KHGR 201553Z 31022G32KT 10SM BKN031 OVC080 M01/M06 A2957 RMK AO2 PK WND 31036/1520 PRESRR SLP029 T10061061
K2W6 201623Z AUTO 29016G27KT 270V330 10SM SCT029 BKN080 07/01 A2947 RMK AO1
K2G4 201630Z AUTO 00000KT 3/4SM OVC004 M12/M12 A2962 RMK AO1
KOXB 201625Z AUTO 30012G26KT 10SM FEW014 BKN019 OVC042 11/08 A2934 RMK AO2 PK WND 28037/1609 T01110078
KSBY 201626Z 30018G24KT 10SM FEW018 SCT029 BKN040 08/05 A2939 RMK AO2 PK WND 30031/1611 RAE1555 P0000 T00830050
KSBY 201423Z 2014/2112 23014G22KT P6SM SCT025 BKN035 
     FM201600 29016G24KT P6SM SCT025 BKN035 
     FM201700 32022G32KT P6SM BKN035 
     FM210300 31018G28KT P6SM SCT050
       
KW29 201620Z AUTO 30016G26KT 10SM SCT024 OVC095 06/02 A2945 RMK AO2
KDMW 201620Z AUTO 32018G28KT 10SM BKN020 OVC027 02/M02 A2949 RMK AO2